Time;durP1;ratioP1;P1;durP2;ratioP2;P2;SDS_P1;SDS_P2;PMS_P1;PMS_P2;Temp;Humidity;BMP_temperature;BMP_pressure;BME280_temperature;BME280_humidity;BME280_pressure;Samples;Min_cycle;Max_cycle;Signal;HPM_P1;HPM_P2
2022/04/25 00:00:55;;;;;;;10.77;5.78;;;;;;;;;;5054285;28;20021;-76
2022/04/25 00:03:21;;;;;;;10.50;6.70;;;;;;;;;;5054291;28;20028;-75
2022/04/25 00:05:47;;;;;;;12.75;6.97;;;;;;;;;;5054272;28;20028;-75
2022/04/25 00:08:13;;;;;;;14.32;6.38;;;;;;;;;;5054181;28;20106;-75
2022/04/25 00:10:39;;;;;;;19.60;7.45;;;;;;;;;;5054311;28;20336;-75
2022/04/25 00:13:05;;;;;;;13.23;7.00;;;;;;;;;;5036352;28;20018;-75
2022/04/25 00:15:31;;;;;;;13.15;7.00;;;;;;;;;;5032594;28;20037;-76
2022/04/25 00:17:57;;;;;;;10.52;6.45;;;;;;;;;;5034196;28;20025;-76
2022/04/25 00:20:23;;;;;;;18.45;6.68;;;;;;;;;;5034122;28;20022;-75
2022/04/25 00:22:49;;;;;;;17.33;7.60;;;;;;;;;;5034174;28;20030;-76
2022/04/25 00:25:15;;;;;;;18.85;7.28;;;;;;;;;;5033992;28;20033;-76
2022/04/25 00:27:41;;;;;;;16.05;7.20;;;;;;;;;;5034038;28;20032;-75
2022/04/25 00:30:08;;;;;;;14.32;7.00;;;;;;;;;;5038977;28;20029;-76
2022/04/25 00:32:34;;;;;;;17.60;7.35;;;;;;;;;;5053799;28;20037;-76
2022/04/25 00:35:02;;;;;;;17.67;7.35;;;;;;;;;;5053504;28;20025;-76
2022/04/25 00:37:28;;;;;;;17.02;6.55;;;;;;;;;;5053846;28;20021;-75
2022/04/25 00:39:55;;;;;;;14.68;7.47;;;;;;;;;;5053769;28;20120;-76
2022/04/25 00:42:21;;;;;;;14.95;7.35;;;;;;;;;;5053694;28;20437;-75
2022/04/25 00:44:47;;;;;;;19.92;7.55;;;;;;;;;;5053550;28;20025;-76
2022/04/25 00:47:14;;;;;;;16.65;7.93;;;;;;;;;;5053533;28;20140;-76
2022/04/25 00:49:41;;;;;;;16.73;7.40;;;;;;;;;;5053505;28;20032;-76
2022/04/25 00:52:07;;;;;;;15.15;7.40;;;;;;;;;;5053358;28;20087;-75
2022/04/25 00:54:33;;;;;;;14.27;7.57;;;;;;;;;;5051933;28;20036;-76
2022/04/25 00:57:00;;;;;;;17.42;8.25;;;;;;;;;;5053374;28;20025;-76
2022/04/25 00:59:26;;;;;;;17.75;8.18;;;;;;;;;;5053196;28;20024;-76
2022/04/25 01:01:52;;;;;;;17.52;7.95;;;;;;;;;;5053043;28;20020;-76
2022/04/25 01:04:20;;;;;;;12.25;6.78;;;;;;;;;;5053197;28;20104;-76
2022/04/25 01:06:46;;;;;;;15.20;7.80;;;;;;;;;;5051564;28;20032;-75
2022/04/25 01:09:12;;;;;;;10.98;6.97;;;;;;;;;;5051627;28;20052;-77
2022/04/25 01:11:38;;;;;;;16.90;7.43;;;;;;;;;;5046894;28;20483;-76
2022/04/25 01:14:14;;;;;;;14.52;7.40;;;;;;;;;;5032876;28;20025;-77
2022/04/25 01:16:40;;;;;;;18.02;8.05;;;;;;;;;;5031673;28;20053;-77
2022/04/25 01:19:06;;;;;;;15.88;7.03;;;;;;;;;;5032980;28;20026;-76
2022/04/25 01:21:37;;;;;;;13.20;7.63;;;;;;;;;;5032917;28;20440;-77
2022/04/25 01:29:52;;;;;;;16.33;7.75;;;;;;;;;;5030345;28;20032;-77
2022/04/25 01:32:18;;;;;;;16.20;7.25;;;;;;;;;;5030428;28;20030;-76
2022/04/25 01:34:44;;;;;;;13.45;7.65;;;;;;;;;;5030315;28;20033;-76
2022/04/25 01:37:12;;;;;;;14.95;9.07;;;;;;;;;;5030128;28;20034;-76
2022/04/25 01:39:39;;;;;;;19.17;8.13;;;;;;;;;;5030333;28;20032;-76
2022/04/25 01:42:05;;;;;;;17.75;7.72;;;;;;;;;;5030211;28;20021;-76
2022/04/25 01:44:31;;;;;;;19.33;8.50;;;;;;;;;;5030058;28;20076;-77
2022/04/25 01:46:58;;;;;;;18.67;7.72;;;;;;;;;;5030148;28;20068;-76
2022/04/25 01:49:24;;;;;;;15.73;8.65;;;;;;;;;;5030112;28;20040;-76
2022/04/25 01:51:50;;;;;;;19.67;8.93;;;;;;;;;;5029936;28;20748;-77
2022/04/25 01:54:19;;;;;;;22.02;8.38;;;;;;;;;;5029912;28;20034;-76
2022/04/25 01:56:45;;;;;;;17.77;9.80;;;;;;;;;;5029973;28;20053;-76
2022/04/25 01:59:11;;;;;;;17.42;8.15;;;;;;;;;;5029905;28;20030;-76
2022/04/25 02:01:37;;;;;;;17.63;8.30;;;;;;;;;;5029764;28;20029;-76
2022/04/25 02:04:03;;;;;;;21.05;9.18;;;;;;;;;;5031103;28;20060;-76
2022/04/25 02:06:29;;;;;;;20.08;9.10;;;;;;;;;;5030698;28;20052;-76
2022/04/25 02:08:55;;;;;;;16.85;9.32;;;;;;;;;;5031873;28;20057;-76
2022/04/25 02:11:22;;;;;;;20.10;8.75;;;;;;;;;;5035611;28;20112;-76
2022/04/25 02:13:57;;;;;;;20.92;8.93;;;;;;;;;;5051871;28;20079;-76
2022/04/25 02:16:24;;;;;;;17.90;9.20;;;;;;;;;;5051946;28;20032;-76
2022/04/25 02:18:50;;;;;;;17.58;8.93;;;;;;;;;;5051929;28;20108;-76
2022/04/25 02:21:16;;;;;;;21.85;8.65;;;;;;;;;;5051835;28;20029;-76
2022/04/25 02:23:42;;;;;;;19.92;9.55;;;;;;;;;;5051127;28;20102;-76
2022/04/25 02:26:09;;;;;;;16.50;9.25;;;;;;;;;;5051848;28;20052;-76
2022/04/25 02:28:35;;;;;;;21.13;10.15;;;;;;;;;;5051765;28;20032;-77
2022/04/25 02:31:01;;;;;;;21.45;10.20;;;;;;;;;;5051580;28;20032;-76
2022/04/25 02:33:27;;;;;;;20.83;9.10;;;;;;;;;;5051706;28;20047;-76
2022/04/25 02:35:54;;;;;;;20.23;9.38;;;;;;;;;;5051548;28;20021;-76
2022/04/25 02:38:20;;;;;;;19.30;9.73;;;;;;;;;;5051672;28;20021;-76
2022/04/25 02:40:46;;;;;;;18.98;9.60;;;;;;;;;;5051826;28;20017;-76
2022/04/25 02:43:12;;;;;;;19.40;9.55;;;;;;;;;;5051639;28;20033;-76
2022/04/25 02:45:39;;;;;;;19.65;9.23;;;;;;;;;;5051450;28;20075;-76
2022/04/25 02:48:05;;;;;;;20.40;10.40;;;;;;;;;;5051672;28;20024;-76
2022/04/25 02:50:31;;;;;;;18.55;10.45;;;;;;;;;;5051395;28;20486;-76
2022/04/25 02:52:57;;;;;;;21.52;10.35;;;;;;;;;;5051645;28;20025;-76
2022/04/25 02:55:24;;;;;;;19.35;9.82;;;;;;;;;;5051699;28;20036;-76
2022/04/25 02:57:50;;;;;;;22.05;10.18;;;;;;;;;;5051578;28;20033;-76
2022/04/25 03:00:16;;;;;;;23.73;10.98;;;;;;;;;;5051291;28;20021;-76
2022/04/25 03:02:42;;;;;;;23.50;9.88;;;;;;;;;;5051568;28;20752;-76
2022/04/25 03:05:08;;;;;;;23.17;10.55;;;;;;;;;;5051287;28;20037;-76
2022/04/25 03:07:34;;;;;;;16.80;10.20;;;;;;;;;;5051358;28;20511;-76
2022/04/25 03:10:00;;;;;;;20.00;10.93;;;;;;;;;;5051432;28;20059;-76
2022/04/25 03:12:26;;;;;;;21.13;10.88;;;;;;;;;;5038978;28;20129;-76
2022/04/25 03:14:52;;;;;;;22.15;11.02;;;;;;;;;;5029922;28;20036;-76
2022/04/25 03:17:18;;;;;;;20.20;10.40;;;;;;;;;;5031459;28;20044;-76
2022/04/25 03:19:44;;;;;;;23.80;10.63;;;;;;;;;;5031481;28;20033;-76
2022/04/25 03:22:10;;;;;;;23.23;11.43;;;;;;;;;;5031363;28;20022;-76
2022/04/25 03:24:36;;;;;;;16.83;10.10;;;;;;;;;;5031371;28;20104;-76
2022/04/25 03:27:02;;;;;;;19.83;11.05;;;;;;;;;;5031271;28;20034;-76
2022/04/25 03:29:28;;;;;;;24.60;11.35;;;;;;;;;;5031293;28;20079;-76
2022/04/25 03:31:54;;;;;;;24.05;10.95;;;;;;;;;;5031244;28;20028;-76
2022/04/25 03:34:21;;;;;;;23.42;11.02;;;;;;;;;;5031259;28;20388;-76
2022/04/25 03:36:51;;;;;;;26.08;10.93;;;;;;;;;;5034366;28;20491;-76
2022/04/25 03:39:17;;;;;;;26.58;11.50;;;;;;;;;;5033500;28;20031;-76
2022/04/25 03:41:43;;;;;;;27.70;11.75;;;;;;;;;;5034997;28;20104;-76
2022/04/25 03:44:09;;;;;;;33.13;12.05;;;;;;;;;;5039721;28;20025;-76
2022/04/25 03:46:35;;;;;;;27.88;13.07;;;;;;;;;;5054698;28;20108;-76
2022/04/25 03:49:02;;;;;;;31.50;12.18;;;;;;;;;;5054739;28;20096;-76
2022/04/25 03:51:29;;;;;;;23.95;12.93;;;;;;;;;;5054556;28;20032;-76
2022/04/25 03:53:55;;;;;;;24.83;12.55;;;;;;;;;;5054470;28;20025;-76
2022/04/25 03:59:06;;;;;;;26.77;12.38;;;;;;;;;;5054515;28;20442;-76
2022/04/25 04:01:35;;;;;;;24.15;12.15;;;;;;;;;;5054367;28;20020;-76
2022/04/25 04:04:05;;;;;;;27.27;13.05;;;;;;;;;;5054347;28;20021;-76
2022/04/25 04:06:31;;;;;;;30.67;12.57;;;;;;;;;;5054325;28;20132;-76
2022/04/25 04:08:57;;;;;;;26.20;12.98;;;;;;;;;;5052774;28;20040;-76
2022/04/25 04:11:45;;;;;;;26.80;13.18;;;;;;;;;;5050483;28;20028;-76
2022/04/25 04:14:09;;;;;;;26.27;13.10;;;;;;;;;;5034071;28;20438;-76
2022/04/25 04:16:35;;;;;;;25.88;12.50;;;;;;;;;;5034146;28;20545;-76
2022/04/25 04:19:01;;;;;;;25.63;13.02;;;;;;;;;;5034201;28;20064;-76
2022/04/25 04:21:27;;;;;;;25.80;11.93;;;;;;;;;;5033906;28;20018;-76
2022/04/25 04:23:54;;;;;;;21.42;12.07;;;;;;;;;;5033996;28;20017;-76
2022/04/25 04:26:20;;;;;;;28.30;12.52;;;;;;;;;;5034100;28;20055;-76
2022/04/25 04:28:46;;;;;;;27.63;12.73;;;;;;;;;;5034014;28;20380;-76
2022/04/25 04:31:12;;;;;;;22.73;12.52;;;;;;;;;;5047844;28;20057;-76
2022/04/25 04:33:38;;;;;;;23.17;12.18;;;;;;;;;;5053851;28;20036;-76
2022/04/25 04:36:19;;;;;;;27.90;13.00;;;;;;;;;;5053601;28;20029;-76
2022/04/25 04:38:45;;;;;;;29.70;13.52;;;;;;;;;;5053765;28;20092;-76
2022/04/25 04:41:11;;;;;;;24.63;12.07;;;;;;;;;;5053815;28;20529;-77
2022/04/25 04:43:38;;;;;;;25.48;13.23;;;;;;;;;;5053719;28;20052;-77
2022/04/25 04:46:04;;;;;;;25.40;14.18;;;;;;;;;;5053465;28;20129;-77
2022/04/25 04:48:30;;;;;;;27.88;14.98;;;;;;;;;;5052808;28;20032;-77
2022/04/25 04:50:56;;;;;;;31.13;14.88;;;;;;;;;;5053486;28;20104;-77
2022/04/25 04:53:23;;;;;;;30.20;15.23;;;;;;;;;;5053385;28;20078;-77
2022/04/25 04:55:51;;;;;;;29.80;14.55;;;;;;;;;;5053927;28;20029;-77
2022/04/25 04:58:17;;;;;;;26.35;13.95;;;;;;;;;;5053415;28;20102;-77
2022/04/25 05:00:44;;;;;;;28.20;15.85;;;;;;;;;;5053218;28;20024;-77
2022/04/25 05:03:13;;;;;;;29.98;15.43;;;;;;;;;;5053204;28;20021;-77
2022/04/25 05:05:39;;;;;;;30.60;15.65;;;;;;;;;;5053112;28;20493;-77
2022/04/25 05:08:06;;;;;;;33.28;16.08;;;;;;;;;;5053140;28;20506;-77
2022/04/25 05:10:32;;;;;;;29.63;15.05;;;;;;;;;;5053223;28;20033;-77
2022/04/25 05:12:58;;;;;;;28.55;15.45;;;;;;;;;;5036368;28;20056;-77
2022/04/25 05:15:25;;;;;;;40.15;18.20;;;;;;;;;;5032917;28;20137;-77
2022/04/25 05:17:53;;;;;;;32.40;15.68;;;;;;;;;;5033145;28;20021;-77
2022/04/25 05:20:20;;;;;;;36.63;17.50;;;;;;;;;;5032949;28;20022;-77
2022/04/25 05:22:46;;;;;;;31.23;16.27;;;;;;;;;;5032969;28;20025;-77
2022/04/25 05:25:17;;;;;;;32.65;16.52;;;;;;;;;;5032885;28;20070;-77
2022/04/25 05:27:44;;;;;;;39.13;17.10;;;;;;;;;;5032951;28;20034;-77
2022/04/25 05:30:11;;;;;;;32.85;16.70;;;;;;;;;;5038067;28;20058;-77
2022/04/25 05:32:43;;;;;;;30.73;16.88;;;;;;;;;;5052866;28;20032;-77
2022/04/25 05:35:10;;;;;;;31.88;16.90;;;;;;;;;;5052429;28;20494;-77
2022/04/25 05:37:36;;;;;;;38.60;17.15;;;;;;;;;;5052545;28;20091;-77
2022/04/25 05:40:03;;;;;;;28.88;16.40;;;;;;;;;;5052540;28;20021;-77
2022/04/25 05:42:29;;;;;;;32.28;17.33;;;;;;;;;;5052552;28;20402;-77
2022/04/25 05:44:55;;;;;;;32.17;18.67;;;;;;;;;;5052149;28;20459;-77
2022/04/25 05:47:21;;;;;;;30.92;17.20;;;;;;;;;;5052517;28;20036;-77
2022/04/25 05:52:31;;;;;;;31.75;16.55;;;;;;;;;;5051851;28;20036;-77
2022/04/25 05:54:57;;;;;;;36.50;16.90;;;;;;;;;;5051930;28;20032;-77
2022/04/25 05:57:23;;;;;;;35.13;16.88;;;;;;;;;;5051808;28;20032;-77
2022/04/25 05:59:49;;;;;;;38.78;17.98;;;;;;;;;;5051780;28;20074;-77
2022/04/25 06:02:17;;;;;;;30.20;17.15;;;;;;;;;;5051660;28;20379;-77
2022/04/25 06:04:43;;;;;;;32.80;18.65;;;;;;;;;;5051655;28;20024;-77
2022/04/25 06:07:09;;;;;;;35.22;18.40;;;;;;;;;;5048864;28;20496;-77
2022/04/25 06:09:35;;;;;;;42.42;19.42;;;;;;;;;;5051647;28;20020;-77
2022/04/25 06:12:02;;;;;;;44.20;19.88;;;;;;;;;;5050719;28;20355;-76
2022/04/25 06:14:31;;;;;;;35.17;19.23;;;;;;;;;;5051451;28;20028;-77
2022/04/25 06:16:59;;;;;;;36.05;19.23;;;;;;;;;;5051443;28;20017;-77
2022/04/25 06:19:25;;;;;;;39.15;19.55;;;;;;;;;;5051477;28;20042;-77
2022/04/25 06:21:51;;;;;;;34.65;19.60;;;;;;;;;;5051382;28;20507;-77
2022/04/25 06:24:17;;;;;;;35.33;19.40;;;;;;;;;;5051414;28;20460;-77
2022/04/25 06:26:43;;;;;;;45.78;19.83;;;;;;;;;;5051699;28;20092;-77
2022/04/25 06:29:09;;;;;;;38.50;18.83;;;;;;;;;;5051246;28;20017;-77
2022/04/25 06:31:35;;;;;;;42.65;19.55;;;;;;;;;;5051193;28;20070;-77
2022/04/25 06:34:01;;;;;;;41.28;22.33;;;;;;;;;;5051378;28;20028;-78
2022/04/25 06:36:27;;;;;;;39.60;20.85;;;;;;;;;;5051061;28;20029;-77
2022/04/25 06:38:53;;;;;;;42.08;20.80;;;;;;;;;;5051334;28;20021;-77
2022/04/25 06:41:21;;;;;;;42.50;20.63;;;;;;;;;;5051443;28;20021;-77
2022/04/25 06:43:47;;;;;;;34.55;18.60;;;;;;;;;;5051189;28;20561;-78
2022/04/25 06:46:13;;;;;;;34.95;19.58;;;;;;;;;;5051490;28;20379;-77
2022/04/25 06:48:39;;;;;;;33.63;19.95;;;;;;;;;;5051143;28;20748;-77
2022/04/25 06:51:05;;;;;;;36.78;18.77;;;;;;;;;;5051641;28;20099;-78
2022/04/25 06:53:31;;;;;;;34.42;17.85;;;;;;;;;;5051500;28;20432;-78
2022/04/25 06:55:57;;;;;;;39.00;20.90;;;;;;;;;;5051592;28;20033;-76
2022/04/25 06:58:26;;;;;;;36.85;20.10;;;;;;;;;;5051965;28;20475;-78
2022/04/25 07:00:52;;;;;;;37.05;21.48;;;;;;;;;;5046189;28;20018;-79
2022/04/25 07:03:18;;;;;;;34.30;19.30;;;;;;;;;;5031734;28;20076;-78
2022/04/25 07:05:44;;;;;;;37.08;20.08;;;;;;;;;;5031906;28;20413;-81
2022/04/25 07:08:10;;;;;;;37.80;21.08;;;;;;;;;;5032488;28;20080;-75
2022/04/25 07:10:36;;;;;;;36.80;20.50;;;;;;;;;;5034315;28;20075;-78
2022/04/25 07:13:02;;;;;;;39.05;20.52;;;;;;;;;;5036526;28;20029;-78
2022/04/25 07:15:29;;;;;;;40.50;21.73;;;;;;;;;;5053272;28;20040;-78
2022/04/25 07:17:55;;;;;;;36.13;20.10;;;;;;;;;;5049128;28;20017;-78
2022/04/25 07:20:21;;;;;;;34.28;20.92;;;;;;;;;;5056436;28;20021;-78
2022/04/25 07:31:02;;;;;;;39.35;19.90;;;;;;;;;;5053363;28;20105;-79
2022/04/25 07:33:28;;;;;;;38.35;18.65;;;;;;;;;;5053776;28;20544;-79
2022/04/25 07:35:54;;;;;;;39.05;21.42;;;;;;;;;;5054769;28;20395;-79
2022/04/25 07:38:20;;;;;;;38.28;20.85;;;;;;;;;;5054955;28;20017;-78
2022/04/25 07:40:46;;;;;;;36.20;19.23;;;;;;;;;;5055414;28;20040;-77
2022/04/25 07:43:12;;;;;;;36.78;19.58;;;;;;;;;;5055947;28;20444;-78
2022/04/25 07:45:39;;;;;;;34.65;19.77;;;;;;;;;;5055400;28;20060;-78
2022/04/25 07:48:05;;;;;;;36.30;20.00;;;;;;;;;;5055130;28;20040;-79
2022/04/25 07:50:32;;;;;;;37.60;19.80;;;;;;;;;;5054458;28;20382;-79
2022/04/25 07:52:58;;;;;;;37.03;20.25;;;;;;;;;;5053292;28;20671;-78
2022/04/25 07:55:24;;;;;;;38.65;20.77;;;;;;;;;;5054770;28;20029;-79
2022/04/25 07:57:50;;;;;;;36.97;19.25;;;;;;;;;;5054565;28;20021;-79
2022/04/25 08:00:16;;;;;;;34.58;19.33;;;;;;;;;;5054140;28;20633;-78
2022/04/25 08:02:42;;;;;;;35.65;19.55;;;;;;;;;;5053881;28;20086;-78
2022/04/25 08:05:08;;;;;;;36.97;19.58;;;;;;;;;;5054140;28;20021;-78
2022/04/25 08:07:36;;;;;;;34.42;20.17;;;;;;;;;;5054343;28;20053;-77
2022/04/25 08:10:02;;;;;;;34.55;18.80;;;;;;;;;;5053914;28;20063;-78
2022/04/25 08:18:01;;;;;;;35.88;20.20;;;;;;;;;;5054257;28;20498;-78
2022/04/25 08:20:28;;;;;;;37.97;19.63;;;;;;;;;;5054116;28;20024;-78
2022/04/25 08:22:54;;;;;;;35.30;19.33;;;;;;;;;;5052772;28;20047;-78
2022/04/25 08:25:20;;;;;;;36.53;18.95;;;;;;;;;;5053881;28;20029;-78
2022/04/25 08:27:46;;;;;;;31.30;17.52;;;;;;;;;;5054007;28;20033;-78
2022/04/25 08:30:12;;;;;;;32.78;18.15;;;;;;;;;;5050481;28;20033;-78
2022/04/25 08:32:38;;;;;;;36.97;19.08;;;;;;;;;;5054045;28;20025;-78
2022/04/25 08:35:05;;;;;;;36.47;18.67;;;;;;;;;;5054554;28;20021;-80
2022/04/25 08:37:31;;;;;;;29.70;17.70;;;;;;;;;;5053562;28;20360;-81
2022/04/25 08:39:57;;;;;;;37.92;17.75;;;;;;;;;;5055030;28;20020;-80
2022/04/25 08:42:23;;;;;;;35.60;19.25;;;;;;;;;;5054591;28;20029;-81
2022/04/25 08:44:52;;;;;;;35.72;19.50;;;;;;;;;;5054722;28;20064;-80
2022/04/25 08:47:19;;;;;;;39.63;19.63;;;;;;;;;;5054348;28;20059;-80
2022/04/25 08:49:46;;;;;;;32.08;16.88;;;;;;;;;;5054655;28;20024;-79
2022/04/25 08:52:12;;;;;;;31.88;17.35;;;;;;;;;;5054440;28;20029;-77
2022/04/25 08:54:38;;;;;;;42.42;19.88;;;;;;;;;;5054206;28;20025;-80
2022/04/25 08:57:04;;;;;;;37.15;19.92;;;;;;;;;;5054049;28;20446;-78
2022/04/25 08:59:31;;;;;;;38.97;19.73;;;;;;;;;;5053746;28;20044;-77
2022/04/25 09:01:57;;;;;;;30.15;17.17;;;;;;;;;;5053299;28;20025;-77
2022/04/25 09:04:24;;;;;;;31.38;18.30;;;;;;;;;;5051116;28;20021;-77
2022/04/25 09:06:55;;;;;;;32.03;17.25;;;;;;;;;;5053080;28;20481;-77
2022/04/25 09:09:21;;;;;;;33.30;17.67;;;;;;;;;;5053382;28;20136;-76
2022/04/25 09:14:32;;;;;;;34.78;18.75;;;;;;;;;;5052733;28;20544;-80
2022/04/25 09:16:59;;;;;;;42.75;20.05;;;;;;;;;;5052680;28;20033;-83
2022/04/25 09:19:25;;;;;;;37.13;18.92;;;;;;;;;;5053674;28;20031;-78
2022/04/25 09:21:51;;;;;;;38.05;19.40;;;;;;;;;;5053637;28;20459;-79
2022/04/25 09:24:21;;;;;;;41.70;19.13;;;;;;;;;;5053373;28;20013;-79
2022/04/25 09:26:48;;;;;;;37.42;17.35;;;;;;;;;;5053220;28;20025;-79
2022/04/25 09:29:14;;;;;;;31.05;17.40;;;;;;;;;;5052376;28;20025;-78
2022/04/25 09:31:48;;;;;;;35.28;18.10;;;;;;;;;;5045029;28;20029;-77
2022/04/25 09:34:59;;;;;;;33.42;17.85;;;;;;;;;;5033074;28;20379;-78
2022/04/25 09:37:02;;;;;;;33.60;18.40;;;;;;;;;;5033270;28;20048;-78
2022/04/25 09:39:30;;;;;;;35.80;17.92;;;;;;;;;;5040384;28;20040;-78
2022/04/25 09:41:56;;;;;;;32.03;17.63;;;;;;;;;;5052441;28;20383;-77
2022/04/25 09:44:23;;;;;;;34.28;17.77;;;;;;;;;;5052346;28;20021;-77
2022/04/25 09:46:49;;;;;;;35.20;18.95;;;;;;;;;;5052420;28;20021;-77
2022/04/25 09:49:21;;;;;;;31.15;18.50;;;;;;;;;;5052314;28;20025;-76
2022/04/25 09:51:47;;;;;;;;;;;;;;;;;;5052501;28;20021;-77
2022/04/25 09:54:23;;;;;;;29.08;16.67;;;;;;;;;;5052367;28;19955;-76
2022/04/25 09:56:49;;;;;;;27.23;15.55;;;;;;;;;;5052119;28;20033;-77
2022/04/25 09:59:15;;;;;;;30.10;16.52;;;;;;;;;;5051887;28;20490;-77
2022/04/25 10:01:43;;;;;;;34.15;16.23;;;;;;;;;;5050124;28;20025;-77
2022/04/25 10:04:44;;;;;;;30.30;16.50;;;;;;;;;;5051678;28;20503;-76
2022/04/25 10:07:11;;;;;;;25.73;15.30;;;;;;;;;;5029574;28;20065;-77
2022/04/25 10:09:37;;;;;;;26.42;14.48;;;;;;;;;;5029416;28;20052;-77
2022/04/25 10:12:04;;;;;;;30.17;15.82;;;;;;;;;;5029326;28;20029;-77
2022/04/25 10:14:30;;;;;;;24.13;15.60;;;;;;;;;;5029860;28;20111;-77
2022/04/25 10:16:57;;;;;;;25.08;14.73;;;;;;;;;;5029631;28;20423;-75
2022/04/25 10:19:26;;;;;;;27.25;14.43;;;;;;;;;;5015908;28;20029;-73
2022/04/25 10:21:54;;;;;;;24.92;14.38;;;;;;;;;;5009794;28;20034;-76
2022/04/25 10:24:21;;;;;;;26.70;15.25;;;;;;;;;;5009853;28;20401;-74
2022/04/25 10:26:48;;;;;;;24.60;14.93;;;;;;;;;;5010115;28;20033;-73
2022/04/25 10:29:16;;;;;;;25.83;15.10;;;;;;;;;;5020956;28;20026;-73
2022/04/25 10:31:44;;;;;;;24.17;13.93;;;;;;;;;;5028923;28;20060;-73
2022/04/25 10:34:14;;;;;;;19.05;13.05;;;;;;;;;;5029125;28;20033;-73
2022/04/25 10:36:40;;;;;;;23.00;13.18;;;;;;;;;;5028799;28;20029;-73
2022/04/25 10:39:18;;;;;;;22.33;13.10;;;;;;;;;;5029191;28;20025;-73
2022/04/25 10:44:42;;;;;;;21.38;13.25;;;;;;;;;;5050523;28;20036;-74
2022/04/25 10:47:09;;;;;;;22.50;13.95;;;;;;;;;;5053038;28;20163;-73
2022/04/25 10:49:35;;;;;;;25.17;13.60;;;;;;;;;;5055390;28;20036;-73
2022/04/25 10:52:02;;;;;;;22.70;13.27;;;;;;;;;;5055573;28;20029;-73
2022/04/25 10:54:28;;;;;;;26.90;13.77;;;;;;;;;;5054220;28;20044;-73
2022/04/25 10:57:11;;;;;;;24.17;13.30;;;;;;;;;;5055447;28;20047;-74
2022/04/25 10:59:40;;;;;;;21.73;13.23;;;;;;;;;;5055120;28;20013;-73
2022/04/25 11:02:23;;;;;;;22.55;13.80;;;;;;;;;;5055145;28;20104;-74
2022/04/25 11:05:09;;;;;;;20.77;12.32;;;;;;;;;;5053586;28;20025;-81
2022/04/25 11:07:37;;;;;;;19.52;11.52;;;;;;;;;;5044358;28;20055;-77
2022/04/25 11:10:03;;;;;;;16.58;11.05;;;;;;;;;;5055353;28;20041;-77
2022/04/25 11:12:48;;;;;;;20.80;11.00;;;;;;;;;;5055337;28;20207;-77
2022/04/25 11:15:34;;;;;;;21.05;12.13;;;;;;;;;;5054771;28;20104;-76
2022/04/25 11:18:19;;;;;;;18.63;11.73;;;;;;;;;;5055019;28;20021;-77
2022/04/25 11:20:55;;;;;;;20.38;11.80;;;;;;;;;;5055166;28;20021;-77
2022/04/25 11:23:26;;;;;;;21.27;13.15;;;;;;;;;;5054991;28;20028;-76
2022/04/25 11:25:55;;;;;;;19.07;11.73;;;;;;;;;;5055111;28;20032;-77
2022/04/25 11:28:21;;;;;;;19.98;12.70;;;;;;;;;;5054937;28;20048;-76
2022/04/25 11:31:07;;;;;;;18.48;12.27;;;;;;;;;;5054670;28;20100;-76
2022/04/25 11:33:46;;;;;;;21.55;12.98;;;;;;;;;;5054943;28;20029;-76
2022/04/25 11:36:13;;;;;;;23.15;13.27;;;;;;;;;;5054532;28;20428;-76
2022/04/25 11:41:24;;;;;;;22.85;13.18;;;;;;;;;;5055001;28;20179;-76
2022/04/25 11:43:50;;;;;;;21.45;13.02;;;;;;;;;;5054730;28;20379;-77
2022/04/25 11:46:17;;;;;;;18.52;12.48;;;;;;;;;;5054333;28;20434;-76
2022/04/25 11:48:48;;;;;;;21.77;13.18;;;;;;;;;;5053223;28;20040;-76
2022/04/25 11:51:21;;;;;;;22.75;12.95;;;;;;;;;;5054582;28;20060;-76
2022/04/25 11:53:47;;;;;;;22.23;13.60;;;;;;;;;;5054446;28;20044;-76
2022/04/25 11:56:15;;;;;;;21.73;13.35;;;;;;;;;;5054125;28;20025;-76
2022/04/25 11:58:41;;;;;;;25.10;12.75;;;;;;;;;;5054245;28;20032;-75
2022/04/25 12:01:09;;;;;;;29.02;13.30;;;;;;;;;;5050167;28;20017;-74
2022/04/25 12:03:36;;;;;;;23.92;12.82;;;;;;;;;;5054499;28;20025;-74
2022/04/25 12:06:09;;;;;;;24.92;13.60;;;;;;;;;;5054239;28;20033;-74
2022/04/25 12:16:49;;;;;;;24.67;13.90;;;;;;;;;;5051712;28;20039;-74
2022/04/25 12:19:17;;;;;;;23.70;14.48;;;;;;;;;;5054186;28;20100;-74
2022/04/25 12:21:47;;;;;;;24.45;13.20;;;;;;;;;;5054149;28;20021;-75
2022/04/25 12:24:21;;;;;;;19.92;13.20;;;;;;;;;;5055193;28;20024;-76
2022/04/25 12:26:47;;;;;;;21.88;12.50;;;;;;;;;;5055125;28;20025;-76
2022/04/25 12:29:13;;;;;;;18.38;12.45;;;;;;;;;;5055000;28;20061;-76
2022/04/25 12:31:45;;;;;;;22.42;13.10;;;;;;;;;;5055236;28;20028;-76
2022/04/25 12:34:12;;;;;;;24.73;13.35;;;;;;;;;;5055477;28;20032;-76
2022/04/25 12:36:39;;;;;;;19.27;13.50;;;;;;;;;;5055114;28;20111;-76
2022/04/25 12:39:14;;;;;;;20.02;12.20;;;;;;;;;;5054817;28;20094;-76
2022/04/25 12:41:43;;;;;;;19.35;11.38;;;;;;;;;;5054771;28;20029;-76
2022/04/25 12:44:11;;;;;;;25.45;12.10;;;;;;;;;;5054741;28;20021;-76
2022/04/25 12:46:42;;;;;;;18.55;11.48;;;;;;;;;;5054363;28;20052;-77
2022/04/25 12:49:11;;;;;;;24.42;11.68;;;;;;;;;;5054822;28;20059;-76
2022/04/25 12:51:45;;;;;;;20.50;11.95;;;;;;;;;;5054794;28;20048;-76
2022/04/25 12:54:30;;;;;;;19.65;11.40;;;;;;;;;;5052434;28;20029;-73
2022/04/25 12:57:05;;;;;;;21.60;11.93;;;;;;;;;;5053605;28;20442;-73
2022/04/25 12:59:34;;;;;;;18.10;11.93;;;;;;;;;;5052109;28;20040;-73
2022/04/25 13:02:07;;;;;;;22.15;11.68;;;;;;;;;;5049583;28;20025;-74
2022/04/25 13:04:33;;;;;;;;;;;;;;;;;;5054544;28;20029;-77
2022/04/25 13:06:59;;;;;;;22.92;12.38;;;;;;;;;;5053848;28;20385;-77
2022/04/25 13:09:25;;;;;;;18.10;11.70;;;;;;;;;;5053197;28;20049;-77
2022/04/25 13:11:54;;;;;;;21.85;11.48;;;;;;;;;;5065060;28;20016;-77
2022/04/25 13:14:20;;;;;;;20.38;12.40;;;;;;;;;;5066762;28;20022;-78
2022/04/25 13:16:49;;;;;;;22.42;13.15;;;;;;;;;;5053427;28;20021;-77
2022/04/25 13:19:21;;;;;;;19.02;12.45;;;;;;;;;;5053955;28;20100;-77
2022/04/25 13:21:48;;;;;;;19.83;12.35;;;;;;;;;;5054082;28;20021;-76
2022/04/25 13:24:14;;;;;;;23.50;12.65;;;;;;;;;;5053896;28;20028;-77
2022/04/25 13:26:40;;;;;;;23.88;12.80;;;;;;;;;;5052217;28;20029;-77
2022/04/25 13:29:06;;;;;;;24.25;12.73;;;;;;;;;;5053933;28;20440;-76
2022/04/25 13:31:32;;;;;;;21.73;13.30;;;;;;;;;;5053805;28;20029;-77
2022/04/25 13:33:59;;;;;;;18.85;12.27;;;;;;;;;;5053558;28;20032;-77
2022/04/25 13:36:25;;;;;;;18.25;12.23;;;;;;;;;;5053755;28;20022;-76
2022/04/25 13:38:51;;;;;;;20.90;12.32;;;;;;;;;;5053683;28;20022;-77
2022/04/25 13:41:18;;;;;;;21.67;11.77;;;;;;;;;;5053680;28;20018;-77
2022/04/25 13:43:44;;;;;;;24.77;12.27;;;;;;;;;;5053326;28;20029;-77
2022/04/25 13:46:10;;;;;;;21.05;12.32;;;;;;;;;;5052889;28;20116;-78
2022/04/25 13:48:36;;;;;;;20.35;13.48;;;;;;;;;;5053006;28;20120;-77
2022/04/25 13:51:02;;;;;;;21.23;12.57;;;;;;;;;;5052738;28;20511;-77
2022/04/25 13:53:28;;;;;;;21.98;13.05;;;;;;;;;;5052958;28;20057;-77
2022/04/25 13:55:54;;;;;;;21.13;12.20;;;;;;;;;;5053212;28;20036;-77
2022/04/25 13:58:20;;;;;;;21.83;12.45;;;;;;;;;;5052706;28;20036;-77
2022/04/25 14:00:46;;;;;;;21.45;12.27;;;;;;;;;;5052187;28;20498;-77
2022/04/25 14:03:13;;;;;;;21.88;12.90;;;;;;;;;;5052567;28;20064;-77
2022/04/25 14:05:43;;;;;;;19.58;12.02;;;;;;;;;;5052209;28;20048;-77
2022/04/25 14:08:10;;;;;;;21.77;12.20;;;;;;;;;;5050738;28;20215;-76
2022/04/25 14:10:37;;;;;;;20.65;11.90;;;;;;;;;;5054973;28;20029;-76
2022/04/25 14:13:07;;;;;;;26.65;12.02;;;;;;;;;;5054688;28;20139;-76
2022/04/25 14:15:34;;;;;;;17.70;11.20;;;;;;;;;;5051839;28;20044;-76
2022/04/25 14:18:00;;;;;;;20.35;11.35;;;;;;;;;;5052585;28;20110;-77
2022/04/25 14:20:26;;;;;;;18.35;11.18;;;;;;;;;;5054189;28;20028;-77
2022/04/25 14:22:54;;;;;;;18.35;10.95;;;;;;;;;;5054930;28;20483;-77
2022/04/25 14:25:20;;;;;;;18.40;11.00;;;;;;;;;;5053066;28;20471;-77
2022/04/25 14:27:46;;;;;;;19.08;12.18;;;;;;;;;;5052960;28;20021;-77
2022/04/25 14:30:12;;;;;;;17.27;11.93;;;;;;;;;;5048774;28;20033;-78
2022/04/25 14:32:38;;;;;;;23.98;13.88;;;;;;;;;;5050259;28;20036;-77
2022/04/25 14:35:05;;;;;;;24.73;14.20;;;;;;;;;;5052659;28;20024;-78
2022/04/25 14:37:31;;;;;;;26.42;13.88;;;;;;;;;;5032964;28;20021;-77
2022/04/25 14:39:57;;;;;;;23.63;15.52;;;;;;;;;;5040132;28;20375;-77
2022/04/25 14:42:23;;;;;;;26.10;15.25;;;;;;;;;;5052578;28;20024;-77
2022/04/25 14:44:49;;;;;;;27.63;15.90;;;;;;;;;;5052572;28;20020;-77
2022/04/25 14:47:15;;;;;;;28.67;15.82;;;;;;;;;;5052646;28;20026;-76
2022/04/25 14:55:11;;;;;;;34.28;18.25;;;;;;;;;;5051614;28;20068;-78
2022/04/25 14:57:37;;;;;;;29.48;16.85;;;;;;;;;;5050043;28;20325;-78
2022/04/25 15:00:04;;;;;;;29.23;17.35;;;;;;;;;;5051426;28;20025;-78
2022/04/25 15:02:30;;;;;;;32.40;18.05;;;;;;;;;;5051393;28;20031;-78
2022/04/25 15:04:56;;;;;;;29.95;17.35;;;;;;;;;;5052094;28;20056;-78
2022/04/25 15:07:22;;;;;;;26.55;15.30;;;;;;;;;;5051570;28;20033;-77
2022/04/25 15:09:48;;;;;;;29.55;17.80;;;;;;;;;;5049916;28;20057;-74